AOS weather

Amook Bay Seaplane Base
Amook Bay, Alaska, United States

Public forecast

Using degrees Fahrenheit for public forecast. Weather courtesy of forecast.io.

METAR (pilot weather report)

Closest report is Akhiok Airport, 34.2 nm (63.3 km) SSW. Retrieved 2019/07/17 10:56 UTC (54 minutes ago):

PAKH 171056Z AUTO 31016G25KT 10SM OVC095 13/09 A2973 RMK AO2 SLP070 T01330089 $

TAF (pilot weather forecast)

Closest forecast is Kodiak Airport, 45.7 nm (84.6 km) ENE. Retrieved 2019/07/17 06:45 UTC (5 hours ago):

TAF PADQ 170542Z 1706/1806 28008KT P6SM -RA SCT015 OVC035 TEMPO 1706/1710 5SM -RA BR BKN015 FM171300 31010KT P6SM SCT035 BKN100